Bushy Park, Australia
Current Conditions -  °F | °C
As of 6:30 AM on Thursday 18 Dec 2014 (Local Time) from YMHB Reporting Station
Clear Clear  
Wind Chill: 52°   Ceiling: Unl
Heat Index: 52°   Visibility: 6mi
Dew Point: 41°   Wind: 10mph
Humidity: 67%   Direction: 330°NNW
Pressure: 29.65"   Gusts: NA
Location:  42.7°S, 146.88°E
Report Text: YMHB 171930Z 33009KT CAVOK 11/05 Q1004
Loading
Personal Weather Stations






























Interactive Weather Map New forecast layout! Learn more

10-Day Weather Forecast

Advertisements
Track Severe Weather on mobile